createdAt,value
2022-09-03T00:02:26.742Z,16.50
2022-09-03T00:07:49.943Z,16.50
2022-09-03T00:12:57.370Z,16.40
2022-09-03T00:18:16.321Z,16.30
2022-09-03T00:23:24.446Z,16.20
2022-09-03T00:28:36.744Z,16.00
2022-09-03T00:33:41.356Z,16.00
2022-09-03T00:38:43.030Z,15.90
2022-09-03T00:43:56.354Z,15.90
2022-09-03T00:48:58.013Z,15.90
2022-09-03T00:54:18.553Z,15.90
2022-09-03T00:59:45.338Z,15.90
2022-09-03T01:05:16.673Z,15.90
2022-09-03T01:10:27.125Z,15.90
2022-09-03T01:15:35.583Z,15.80
2022-09-03T01:20:52.671Z,15.80
2022-09-03T01:25:58.725Z,15.80
2022-09-03T01:31:17.455Z,15.80
2022-09-03T01:36:57.579Z,15.80
2022-09-03T01:42:24.411Z,15.80
2022-09-03T01:47:41.066Z,15.70
2022-09-03T01:53:10.494Z,15.70
2022-09-03T01:58:16.473Z,15.70
2022-09-03T02:03:18.216Z,15.60
2022-09-03T02:08:20.658Z,15.60
2022-09-03T02:13:34.495Z,15.60
2022-09-03T02:18:46.021Z,15.50
2022-09-03T02:23:49.059Z,15.50
2022-09-03T02:28:53.225Z,15.40
2022-09-03T02:33:57.073Z,15.40
2022-09-03T02:38:59.176Z,15.30
2022-09-03T02:44:28.074Z,15.20
2022-09-03T02:49:30.784Z,15.10
2022-09-03T02:54:35.891Z,15.00
2022-09-03T02:59:39.758Z,14.90
2022-09-03T03:04:41.509Z,14.80
2022-09-03T03:09:43.329Z,14.70
2022-09-03T03:14:44.984Z,14.60
2022-09-03T03:19:46.633Z,14.60
2022-09-03T03:24:50.467Z,14.60
2022-09-03T03:29:52.242Z,14.50
2022-09-03T03:34:53.998Z,14.50
2022-09-03T03:39:55.780Z,14.50
2022-09-03T03:44:57.738Z,14.50
2022-09-03T03:49:59.916Z,14.50
2022-09-03T03:55:01.822Z,14.60
2022-09-03T04:00:04.411Z,14.50
2022-09-03T04:05:06.571Z,14.50
2022-09-03T04:10:09.700Z,14.40
2022-09-03T04:15:11.558Z,14.40
2022-09-03T04:20:13.338Z,14.30
2022-09-03T04:25:15.398Z,14.30
2022-09-03T04:30:17.118Z,14.20
2022-09-03T04:35:20.984Z,14.00
2022-09-03T04:40:22.852Z,14.00
2022-09-03T04:45:24.617Z,13.90
2022-09-03T04:50:27.880Z,14.00
2022-09-03T04:55:34.619Z,14.10
2022-09-03T05:00:37.548Z,14.10
2022-09-03T05:05:39.193Z,14.10
2022-09-03T05:10:40.943Z,14.10
2022-09-03T05:15:44.088Z,14.20
2022-09-03T05:20:45.772Z,14.30
2022-09-03T05:25:57.433Z,14.40
2022-09-03T05:31:10.876Z,14.50
2022-09-03T05:36:18.899Z,14.60
2022-09-03T05:41:21.989Z,14.50
2022-09-03T05:46:31.720Z,14.70
2022-09-03T05:51:35.521Z,14.80
2022-09-03T05:56:40.198Z,14.90
2022-09-03T06:01:47.785Z,15.10
2022-09-03T06:06:53.749Z,15.10
2022-09-03T06:11:57.224Z,15.10
2022-09-03T06:16:59.386Z,15.10
2022-09-03T06:22:01.134Z,15.10
2022-09-03T06:27:02.898Z,15.00
2022-09-03T06:32:04.998Z,15.10
2022-09-03T06:37:06.812Z,15.10
2022-09-03T06:42:09.461Z,15.10
2022-09-03T06:47:11.148Z,15.20
2022-09-03T06:52:12.826Z,15.30
2022-09-03T06:57:14.490Z,15.30
2022-09-03T07:02:16.351Z,15.40
2022-09-03T07:07:18.597Z,15.50
2022-09-03T07:12:20.289Z,15.70
2022-09-03T07:17:21.967Z,15.70
2022-09-03T07:22:23.677Z,15.90
2022-09-03T07:27:35.152Z,16.00
2022-09-03T07:32:40.959Z,16.10
2022-09-03T07:37:43.333Z,16.40
2022-09-03T07:42:45.010Z,16.40
2022-09-03T07:47:49.580Z,16.50
2022-09-03T07:52:58.419Z,16.60
2022-09-03T07:58:00.081Z,16.80
2022-09-03T08:03:08.410Z,16.90
2022-09-03T08:08:10.176Z,17.00
2022-09-03T08:13:17.172Z,17.20
2022-09-03T08:18:18.889Z,17.40
2022-09-03T08:23:20.555Z,17.60
2022-09-03T08:28:23.405Z,17.70
2022-09-03T08:33:37.280Z,17.70
2022-09-03T08:38:40.921Z,17.80
2022-09-03T08:44:33.393Z,17.90
2022-09-03T08:49:47.106Z,18.00
2022-09-03T08:54:51.630Z,18.20
2022-09-03T08:59:56.353Z,18.20
2022-09-03T09:05:00.896Z,18.30
2022-09-03T09:10:23.715Z,18.50
2022-09-03T09:15:45.015Z,18.50
2022-09-03T09:20:56.395Z,18.80
2022-09-03T09:26:01.314Z,18.80
2022-09-03T09:31:07.700Z,18.90
2022-09-03T09:36:15.345Z,18.90
2022-09-03T09:41:20.170Z,19.10
2022-09-03T09:46:25.130Z,19.10
2022-09-03T09:51:32.145Z,19.30
2022-09-03T09:56:33.881Z,19.30
2022-09-03T10:01:41.094Z,19.30
2022-09-03T10:06:59.281Z,19.50
2022-09-03T10:12:14.680Z,19.50
2022-09-03T10:17:40.495Z,19.80
2022-09-03T10:22:56.631Z,19.80
2022-09-03T10:28:00.328Z,19.80
2022-09-03T10:33:37.155Z,19.80
2022-09-03T10:38:40.097Z,20.00
2022-09-03T10:43:53.726Z,20.30
2022-09-03T10:49:17.199Z,20.20
2022-09-03T10:54:37.746Z,20.00
2022-09-03T10:59:58.009Z,20.50
2022-09-03T11:05:17.541Z,20.30
2022-09-03T11:10:30.953Z,20.40
2022-09-03T11:15:33.018Z,20.80
2022-09-03T11:20:35.314Z,20.80
2022-09-03T11:26:00.567Z,20.80
2022-09-03T11:31:31.531Z,21.00
2022-09-03T11:36:36.818Z,21.20
2022-09-03T11:41:39.753Z,21.10
2022-09-03T11:46:41.726Z,21.30
2022-09-03T11:51:44.061Z,21.40
2022-09-03T11:56:45.778Z,21.50
2022-09-03T12:02:01.992Z,21.50
2022-09-03T12:07:27.022Z,21.40
2022-09-03T12:12:40.350Z,21.50
2022-09-03T12:18:17.820Z,21.40
2022-09-03T12:23:42.133Z,21.70
2022-09-03T12:28:50.472Z,21.80
2022-09-03T12:33:54.929Z,21.70
2022-09-03T12:39:13.132Z,21.90
2022-09-03T12:44:15.243Z,21.80
2022-09-03T12:49:32.379Z,22.10
2022-09-03T12:54:39.166Z,22.00
2022-09-03T12:59:41.024Z,22.00
2022-09-03T13:04:43.869Z,22.00
2022-09-03T13:09:47.008Z,22.40
2022-09-03T13:14:52.401Z,22.70
2022-09-03T13:20:33.946Z,23.00
2022-09-03T13:25:56.925Z,23.40
2022-09-03T13:31:23.955Z,23.40
2022-09-03T13:36:42.292Z,23.40
2022-09-03T13:41:59.236Z,23.40
2022-09-03T13:47:15.897Z,23.60
2022-09-03T13:52:39.286Z,23.80
2022-09-03T13:57:57.258Z,23.80
2022-09-03T14:03:15.512Z,23.70
2022-09-03T14:08:30.797Z,23.70
2022-09-03T14:13:51.155Z,23.90
2022-09-03T14:19:09.466Z,24.10
2022-09-03T14:24:36.322Z,24.30
2022-09-03T14:29:38.426Z,24.50
2022-09-03T14:35:18.803Z,24.70
2022-09-03T14:40:31.693Z,25.30
2022-09-03T14:45:52.589Z,25.30
2022-09-03T14:51:23.022Z,25.30
2022-09-03T14:56:49.734Z,25.60
2022-09-03T15:02:25.465Z,25.40
2022-09-03T15:07:53.704Z,24.80
2022-09-03T15:13:20.613Z,24.20
2022-09-03T15:19:04.801Z,24.00
2022-09-03T15:24:28.156Z,24.00
2022-09-03T15:29:39.091Z,24.40
2022-09-03T15:34:55.117Z,24.60
2022-09-03T15:40:27.745Z,24.80
2022-09-03T15:45:37.876Z,25.20
2022-09-03T15:50:53.262Z,25.60
2022-09-03T15:56:20.990Z,25.60
2022-09-03T16:01:34.531Z,25.10
2022-09-03T16:07:24.000Z,24.60
2022-09-03T16:12:59.366Z,25.00
2022-09-03T16:18:30.607Z,25.00
2022-09-03T16:23:53.087Z,24.90
2022-09-03T16:29:00.498Z,24.70
2022-09-03T16:34:18.518Z,24.60
2022-09-03T16:39:47.739Z,24.30
2022-09-03T16:44:50.621Z,24.10
2022-09-03T16:50:08.310Z,23.90
2022-09-03T16:55:22.599Z,23.80
2022-09-03T17:00:36.041Z,23.70
2022-09-03T17:05:49.854Z,23.80
2022-09-03T17:11:06.511Z,23.80
2022-09-03T17:16:25.120Z,23.60
2022-09-03T17:21:59.078Z,23.20
2022-09-03T17:27:38.958Z,23.00
2022-09-03T17:32:57.340Z,22.90
2022-09-03T17:38:13.822Z,22.70
2022-09-03T17:43:31.793Z,22.40
2022-09-03T17:48:49.702Z,22.20
2022-09-03T17:53:57.361Z,22.00
2022-09-03T17:59:35.433Z,21.80
2022-09-03T18:04:57.690Z,21.60
2022-09-03T18:10:10.176Z,21.50
2022-09-03T18:15:25.568Z,21.30
2022-09-03T18:21:03.167Z,21.10
2022-09-03T18:26:39.633Z,21.00
2022-09-03T18:32:00.226Z,20.80
2022-09-03T18:37:20.720Z,20.70
2022-09-03T18:43:06.163Z,20.70
2022-09-03T18:48:46.972Z,20.50
2022-09-03T18:54:21.190Z,20.40
2022-09-03T19:00:06.416Z,20.30
2022-09-03T19:05:40.956Z,20.10
2022-09-03T19:11:09.595Z,20.10
2022-09-03T19:16:40.110Z,20.00
2022-09-03T19:22:04.490Z,19.90
2022-09-03T19:27:55.553Z,19.90
2022-09-03T19:33:45.206Z,19.80
2022-09-03T19:39:33.740Z,19.70
2022-09-03T19:45:17.838Z,19.60
2022-09-03T19:50:46.029Z,19.50
2022-09-03T19:56:20.600Z,19.40
2022-09-03T20:01:43.726Z,19.30
2022-09-03T20:07:04.430Z,19.30
2022-09-03T20:12:10.253Z,19.20
2022-09-03T20:17:31.281Z,19.10
2022-09-03T20:22:44.609Z,19.00
2022-09-03T20:28:16.129Z,18.90
2022-09-03T20:33:39.465Z,18.90
2022-09-03T20:39:04.798Z,18.90
2022-09-03T20:44:25.187Z,18.90
2022-09-03T20:49:40.367Z,18.90
2022-09-03T20:54:57.068Z,18.80
2022-09-03T21:00:10.965Z,18.80
2022-09-03T21:05:31.247Z,18.60
2022-09-03T21:10:41.233Z,18.50
2022-09-03T21:16:00.352Z,18.50
2022-09-03T21:21:39.692Z,18.50
2022-09-03T21:26:46.196Z,18.30
2022-09-03T21:32:09.697Z,18.30
2022-09-03T21:37:13.315Z,18.20
2022-09-03T21:42:42.179Z,18.10
2022-09-03T21:48:07.614Z,18.10
2022-09-03T21:53:32.692Z,18.00
2022-09-03T21:59:09.015Z,18.00
2022-09-03T22:04:11.409Z,18.00
2022-09-03T22:09:30.104Z,17.90
2022-09-03T22:14:43.046Z,17.90
2022-09-03T22:19:45.610Z,17.80
2022-09-03T22:25:03.127Z,17.80
2022-09-03T22:30:11.278Z,17.90
2022-09-03T22:35:34.630Z,18.00
2022-09-03T22:41:30.331Z,18.00
2022-09-03T22:46:55.102Z,18.00
2022-09-03T22:52:19.641Z,18.00
2022-09-03T22:57:24.304Z,18.10
2022-09-03T23:02:31.480Z,18.10
2022-09-03T23:07:54.798Z,18.10
2022-09-03T23:13:15.838Z,18.10
2022-09-03T23:18:26.902Z,18.00
2022-09-03T23:23:35.782Z,18.00
2022-09-03T23:28:40.666Z,18.00
2022-09-03T23:33:42.473Z,18.00
2022-09-03T23:39:01.686Z,18.00
2022-09-03T23:44:28.584Z,17.90
2022-09-03T23:49:38.437Z,18.00
2022-09-03T23:55:02.853Z,17.90
